sensor_id;sensor_type;location;lat;lon;timestamp;pressure;altitude;pressure_sealevel;temperature;humidity
10948;BME280;5526;42.070;24.752;2023-04-05T00:02:26;98246.94;;;7.39;87.78
10948;BME280;5526;42.070;24.752;2023-04-05T00:04:57;98249.53;;;7.34;88.68
10948;BME280;5526;42.070;24.752;2023-04-05T00:07:25;98265.41;;;7.23;88.35
10948;BME280;5526;42.070;24.752;2023-04-05T00:09:52;98270.38;;;7.24;88.40
10948;BME280;5526;42.070;24.752;2023-04-05T00:12:19;98259.88;;;7.19;88.14
10948;BME280;5526;42.070;24.752;2023-04-05T00:14:47;98257.41;;;7.08;89.12
10948;BME280;5526;42.070;24.752;2023-04-05T00:17:14;98263.00;;;7.16;88.97
10948;BME280;5526;42.070;24.752;2023-04-05T00:19:41;98254.63;;;7.14;88.69
10948;BME280;5526;42.070;24.752;2023-04-05T00:22:10;98261.31;;;7.05;89.32
10948;BME280;5526;42.070;24.752;2023-04-05T00:24:38;98252.94;;;7.03;89.60
10948;BME280;5526;42.070;24.752;2023-04-05T00:27:06;98256.56;;;7.02;89.14
10948;BME280;5526;42.070;24.752;2023-04-05T00:29:33;98262.59;;;7.03;89.35
10948;BME280;5526;42.070;24.752;2023-04-05T00:32:00;98245.41;;;7.12;88.55
10948;BME280;5526;42.070;24.752;2023-04-05T00:34:29;98263.91;;;7.00;89.03
10948;BME280;5526;42.070;24.752;2023-04-05T00:36:57;98276.97;;;7.00;89.36
10948;BME280;5526;42.070;24.752;2023-04-05T00:39:25;98267.00;;;6.97;89.62
10948;BME280;5526;42.070;24.752;2023-04-05T00:41:53;98263.75;;;6.85;89.75
10948;BME280;5526;42.070;24.752;2023-04-05T00:44:20;98267.00;;;6.97;89.04
10948;BME280;5526;42.070;24.752;2023-04-05T00:46:47;98269.63;;;6.97;88.76
10948;BME280;5526;42.070;24.752;2023-04-05T00:49:14;98265.16;;;6.93;89.19
10948;BME280;5526;42.070;24.752;2023-04-05T00:51:42;98262.72;;;6.86;89.23
10948;BME280;5526;42.070;24.752;2023-04-05T00:54:10;98270.03;;;6.84;89.62
10948;BME280;5526;42.070;24.752;2023-04-05T00:56:40;98271.09;;;6.88;89.10
10948;BME280;5526;42.070;24.752;2023-04-05T00:59:07;98269.03;;;6.90;89.84
10948;BME280;5526;42.070;24.752;2023-04-05T01:01:35;98262.47;;;6.88;89.29
10948;BME280;5526;42.070;24.752;2023-04-05T01:04:05;98280.00;;;6.87;89.38
10948;BME280;5526;42.070;24.752;2023-04-05T01:06:42;98281.97;;;6.75;88.90
10948;BME280;5526;42.070;24.752;2023-04-05T01:09:23;98277.22;;;6.72;89.17
10948;BME280;5526;42.070;24.752;2023-04-05T01:11:58;98280.31;;;6.69;89.29
10948;BME280;5526;42.070;24.752;2023-04-05T01:14:26;98263.31;;;6.67;90.50
10948;BME280;5526;42.070;24.752;2023-04-05T01:16:53;98272.91;;;6.61;90.40
10948;BME280;5526;42.070;24.752;2023-04-05T01:19:26;98271.41;;;6.65;90.09
10948;BME280;5526;42.070;24.752;2023-04-05T01:22:23;98274.66;;;6.77;89.97
10948;BME280;5526;42.070;24.752;2023-04-05T01:25:16;98279.72;;;6.62;90.32
10948;BME280;5526;42.070;24.752;2023-04-05T01:28:05;98288.59;;;6.61;89.96
10948;BME280;5526;42.070;24.752;2023-04-05T01:30:42;98279.84;;;6.72;89.57
10948;BME280;5526;42.070;24.752;2023-04-05T01:33:14;98286.41;;;6.75;89.62
10948;BME280;5526;42.070;24.752;2023-04-05T01:35:50;98291.25;;;6.66;89.11
10948;BME280;5526;42.070;24.752;2023-04-05T01:38:22;98291.78;;;6.63;90.07
10948;BME280;5526;42.070;24.752;2023-04-05T01:40:51;98284.91;;;6.57;89.73
10948;BME280;5526;42.070;24.752;2023-04-05T01:43:18;98293.63;;;6.68;89.88
10948;BME280;5526;42.070;24.752;2023-04-05T01:45:47;98284.41;;;6.60;90.23
10948;BME280;5526;42.070;24.752;2023-04-05T01:48:14;98283.66;;;6.65;90.31
10948;BME280;5526;42.070;24.752;2023-04-05T01:50:41;98299.44;;;6.70;89.66
10948;BME280;5526;42.070;24.752;2023-04-05T01:53:08;98301.72;;;6.66;89.71
10948;BME280;5526;42.070;24.752;2023-04-05T01:55:35;98304.72;;;6.53;89.84
10948;BME280;5526;42.070;24.752;2023-04-05T01:58:03;98307.75;;;6.67;89.74
10948;BME280;5526;42.070;24.752;2023-04-05T02:00:30;98306.41;;;6.64;89.58
10948;BME280;5526;42.070;24.752;2023-04-05T02:02:58;98306.41;;;6.64;89.58
10948;BME280;5526;42.070;24.752;2023-04-05T02:05:25;98303.47;;;6.61;89.26
10948;BME280;5526;42.070;24.752;2023-04-05T02:07:52;98315.91;;;6.49;89.87
10948;BME280;5526;42.070;24.752;2023-04-05T02:10:21;98307.38;;;6.58;89.75
10948;BME280;5526;42.070;24.752;2023-04-05T02:12:48;98328.78;;;6.55;90.36
10948;BME280;5526;42.070;24.752;2023-04-05T02:15:15;98309.34;;;6.46;90.84
10948;BME280;5526;42.070;24.752;2023-04-05T02:17:42;98320.78;;;6.40;90.17
10948;BME280;5526;42.070;24.752;2023-04-05T02:20:12;98322.88;;;6.43;90.39
10948;BME280;5526;42.070;24.752;2023-04-05T02:22:40;98317.22;;;6.51;90.21
10948;BME280;5526;42.070;24.752;2023-04-05T02:25:10;98333.41;;;6.48;90.18
10948;BME280;5526;42.070;24.752;2023-04-05T02:27:37;98329.72;;;6.44;89.78
10948;BME280;5526;42.070;24.752;2023-04-05T02:30:05;98322.81;;;6.38;90.13
10948;BME280;5526;42.070;24.752;2023-04-05T02:32:32;98325.56;;;6.48;90.18
10948;BME280;5526;42.070;24.752;2023-04-05T02:34:59;98342.53;;;6.46;90.13
10948;BME280;5526;42.070;24.752;2023-04-05T02:37:28;98327.00;;;6.39;90.41
10948;BME280;5526;42.070;24.752;2023-04-05T02:39:55;98331.47;;;6.39;90.13
10948;BME280;5526;42.070;24.752;2023-04-05T02:42:22;98332.38;;;6.49;89.65
10948;BME280;5526;42.070;24.752;2023-04-05T02:44:50;98342.09;;;6.32;90.04
10948;BME280;5526;42.070;24.752;2023-04-05T02:47:17;98336.22;;;6.42;90.26
10948;BME280;5526;42.070;24.752;2023-04-05T02:49:46;98339.22;;;6.34;89.28
10948;BME280;5526;42.070;24.752;2023-04-05T02:52:13;98353.94;;;6.40;89.14
10948;BME280;5526;42.070;24.752;2023-04-05T02:54:42;98341.06;;;6.33;89.38
10948;BME280;5526;42.070;24.752;2023-04-05T02:57:09;98342.63;;;6.34;89.51
10948;BME280;5526;42.070;24.752;2023-04-05T02:59:37;98350.53;;;6.39;89.20
10948;BME280;5526;42.070;24.752;2023-04-05T03:02:04;98340.69;;;6.46;89.33
10948;BME280;5526;42.070;24.752;2023-04-05T03:04:31;98349.44;;;6.35;89.32
10948;BME280;5526;42.070;24.752;2023-04-05T03:06:59;98340.94;;;6.45;89.16
10948;BME280;5526;42.070;24.752;2023-04-05T03:09:28;98353.75;;;6.46;89.73
10948;BME280;5526;42.070;24.752;2023-04-05T03:12:00;98343.00;;;6.43;89.98
10948;BME280;5526;42.070;24.752;2023-04-05T03:14:28;98342.00;;;6.27;89.09
10948;BME280;5526;42.070;24.752;2023-04-05T03:16:56;98358.78;;;6.31;88.76
10948;BME280;5526;42.070;24.752;2023-04-05T03:19:23;98344.28;;;6.40;88.07
10948;BME280;5526;42.070;24.752;2023-04-05T03:21:51;98346.34;;;6.38;87.36
10948;BME280;5526;42.070;24.752;2023-04-05T03:24:18;98354.19;;;6.38;88.20
10948;BME280;5526;42.070;24.752;2023-04-05T03:26:45;98350.47;;;6.34;87.99
10948;BME280;5526;42.070;24.752;2023-04-05T03:29:14;98345.47;;;6.33;88.27
10948;BME280;5526;42.070;24.752;2023-04-05T03:31:41;98347.38;;;6.37;88.27
10948;BME280;5526;42.070;24.752;2023-04-05T03:34:08;98357.00;;;6.53;87.50
10948;BME280;5526;42.070;24.752;2023-04-05T03:36:35;98349.44;;;6.35;87.45
10948;BME280;5526;42.070;24.752;2023-04-05T03:39:07;98357.94;;;6.47;87.49
10948;BME280;5526;42.070;24.752;2023-04-05T03:41:35;98340.41;;;6.43;87.62
10948;BME280;5526;42.070;24.752;2023-04-05T03:44:02;98359.59;;;6.53;87.00
10948;BME280;5526;42.070;24.752;2023-04-05T03:46:30;98363.69;;;6.44;86.75
10948;BME280;5526;42.070;24.752;2023-04-05T03:48:58;98355.75;;;6.39;87.53
10948;BME280;5526;42.070;24.752;2023-04-05T03:51:25;98354.00;;;6.45;87.49
10948;BME280;5526;42.070;24.752;2023-04-05T03:53:52;98359.03;;;6.51;87.23
10948;BME280;5526;42.070;24.752;2023-04-05T03:56:20;98355.19;;;6.54;86.95
10948;BME280;5526;42.070;24.752;2023-04-05T03:58:47;98366.88;;;6.51;86.84
10948;BME280;5526;42.070;24.752;2023-04-05T04:01:14;98369.69;;;6.45;87.62
10948;BME280;5526;42.070;24.752;2023-04-05T04:03:44;98366.97;;;6.56;87.18
10948;BME280;5526;42.070;24.752;2023-04-05T04:06:11;98365.38;;;6.55;86.83
10948;BME280;5526;42.070;24.752;2023-04-05T04:08:38;98361.94;;;6.50;87.52
10948;BME280;5526;42.070;24.752;2023-04-05T04:11:05;98361.31;;;6.43;86.61
10948;BME280;5526;42.070;24.752;2023-04-05T04:13:32;98380.69;;;6.47;86.16
10948;BME280;5526;42.070;24.752;2023-04-05T04:15:59;98385.06;;;6.41;87.43
10948;BME280;5526;42.070;24.752;2023-04-05T04:18:26;98372.78;;;6.42;87.31
10948;BME280;5526;42.070;24.752;2023-04-05T04:20:55;98387.19;;;6.44;87.78
10948;BME280;5526;42.070;24.752;2023-04-05T04:23:23;98370.78;;;6.49;87.72
10948;BME280;5526;42.070;24.752;2023-04-05T04:25:51;98376.34;;;6.52;87.41
10948;BME280;5526;42.070;24.752;2023-04-05T04:28:19;98385.75;;;6.53;87.08
10948;BME280;5526;42.070;24.752;2023-04-05T04:30:49;98378.13;;;6.52;87.29
10948;BME280;5526;42.070;24.752;2023-04-05T04:33:16;98385.97;;;6.52;87.44
10948;BME280;5526;42.070;24.752;2023-04-05T04:35:44;98384.53;;;6.61;87.58
10948;BME280;5526;42.070;24.752;2023-04-05T04:38:13;98396.59;;;6.62;86.89
10948;BME280;5526;42.070;24.752;2023-04-05T04:40:43;98398.63;;;6.60;87.97
10948;BME280;5526;42.070;24.752;2023-04-05T04:43:13;98404.19;;;6.63;88.42
10948;BME280;5526;42.070;24.752;2023-04-05T04:45:42;98401.81;;;6.62;87.70
10948;BME280;5526;42.070;24.752;2023-04-05T04:48:12;98415.19;;;6.65;88.04
10948;BME280;5526;42.070;24.752;2023-04-05T04:50:41;98412.13;;;6.73;87.73
10948;BME280;5526;42.070;24.752;2023-04-05T04:53:09;98409.00;;;6.71;86.39
10948;BME280;5526;42.070;24.752;2023-04-05T04:55:38;98412.75;;;6.80;87.04
10948;BME280;5526;42.070;24.752;2023-04-05T04:58:06;98415.03;;;6.77;86.85
10948;BME280;5526;42.070;24.752;2023-04-05T05:00:37;98428.47;;;6.64;86.49
10948;BME280;5526;42.070;24.752;2023-04-05T05:03:05;98420.34;;;6.60;86.38
10948;BME280;5526;42.070;24.752;2023-04-05T05:05:33;98433.19;;;6.62;86.83
10948;BME280;5526;42.070;24.752;2023-04-05T05:08:00;98428.31;;;6.70;86.89
10948;BME280;5526;42.070;24.752;2023-04-05T05:10:26;98431.44;;;6.67;85.64
10948;BME280;5526;42.070;24.752;2023-04-05T05:12:55;98436.72;;;6.72;85.62
10948;BME280;5526;42.070;24.752;2023-04-05T05:15:22;98433.72;;;6.64;86.08
10948;BME280;5526;42.070;24.752;2023-04-05T05:17:49;98439.50;;;6.66;86.13
10948;BME280;5526;42.070;24.752;2023-04-05T05:20:17;98450.41;;;6.79;86.05
10948;BME280;5526;42.070;24.752;2023-04-05T05:22:44;98443.13;;;6.65;86.46
10948;BME280;5526;42.070;24.752;2023-04-05T05:25:12;98447.00;;;6.79;85.46
10948;BME280;5526;42.070;24.752;2023-04-05T05:27:39;98443.66;;;6.83;86.39
10948;BME280;5526;42.070;24.752;2023-04-05T05:30:09;98452.75;;;6.81;86.64
10948;BME280;5526;42.070;24.752;2023-04-05T05:32:36;98454.66;;;6.85;86.92
10948;BME280;5526;42.070;24.752;2023-04-05T05:35:04;98450.91;;;6.98;86.39
10948;BME280;5526;42.070;24.752;2023-04-05T05:37:33;98450.09;;;6.97;86.51
10948;BME280;5526;42.070;24.752;2023-04-05T05:40:00;98456.19;;;7.03;85.85
10948;BME280;5526;42.070;24.752;2023-04-05T05:42:28;98450.72;;;7.04;85.46
10948;BME280;5526;42.070;24.752;2023-04-05T05:44:57;98454.41;;;7.08;85.40
10948;BME280;5526;42.070;24.752;2023-04-05T05:47:25;98454.91;;;7.05;86.07
10948;BME280;5526;42.070;24.752;2023-04-05T05:49:52;98452.09;;;7.12;86.39
10948;BME280;5526;42.070;24.752;2023-04-05T05:52:19;98450.69;;;7.26;85.03
10948;BME280;5526;42.070;24.752;2023-04-05T05:54:46;98456.97;;;7.03;83.86
10948;BME280;5526;42.070;24.752;2023-04-05T05:57:13;98444.31;;;7.17;83.74
10948;BME280;5526;42.070;24.752;2023-04-05T05:59:40;98454.34;;;7.25;84.08
10948;BME280;5526;42.070;24.752;2023-04-05T06:02:07;98450.69;;;7.26;84.13
10948;BME280;5526;42.070;24.752;2023-04-05T06:04:36;98453.44;;;7.36;84.35
10948;BME280;5526;42.070;24.752;2023-04-05T06:07:03;98447.03;;;7.27;84.00
10948;BME280;5526;42.070;24.752;2023-04-05T06:09:30;98443.38;;;7.49;84.37
10948;BME280;5526;42.070;24.752;2023-04-05T06:11:59;98454.94;;;7.53;83.64
10948;BME280;5526;42.070;24.752;2023-04-05T06:14:27;98470.97;;;7.35;84.26
10948;BME280;5526;42.070;24.752;2023-04-05T06:16:55;98412.69;;;7.18;83.70
10948;BME280;5526;42.070;24.752;2023-04-05T06:19:22;98449.38;;;7.50;84.71
10948;BME280;5526;42.070;24.752;2023-04-05T06:21:50;98448.16;;;7.57;83.20
10948;BME280;5526;42.070;24.752;2023-04-05T06:24:17;98454.59;;;7.76;82.49
10948;BME280;5526;42.070;24.752;2023-04-05T06:26:44;98462.91;;;7.95;81.83
10948;BME280;5526;42.070;24.752;2023-04-05T06:29:11;98469.97;;;7.94;80.88
10948;BME280;5526;42.070;24.752;2023-04-05T06:31:38;98481.72;;;7.87;80.84
10948;BME280;5526;42.070;24.752;2023-04-05T06:34:06;98467.53;;;8.14;81.97
10948;BME280;5526;42.070;24.752;2023-04-05T06:36:33;98459.66;;;8.14;80.59
10948;BME280;5526;42.070;24.752;2023-04-05T06:39:01;98483.56;;;8.18;79.68
10948;BME280;5526;42.070;24.752;2023-04-05T06:41:29;98476.59;;;8.28;79.80
10948;BME280;5526;42.070;24.752;2023-04-05T06:43:56;98474.34;;;8.15;79.95
10948;BME280;5526;42.070;24.752;2023-04-05T06:46:23;98479.84;;;8.14;80.48
10948;BME280;5526;42.070;24.752;2023-04-05T06:48:51;98486.09;;;7.81;80.56
10948;BME280;5526;42.070;24.752;2023-04-05T06:51:18;98481.53;;;7.98;80.64
10948;BME280;5526;42.070;24.752;2023-04-05T06:53:46;98482.94;;;7.79;80.21
10948;BME280;5526;42.070;24.752;2023-04-05T06:56:14;98486.78;;;7.98;81.36
10948;BME280;5526;42.070;24.752;2023-04-05T06:58:41;98511.69;;;8.01;80.11
10948;BME280;5526;42.070;24.752;2023-04-05T07:01:08;98502.63;;;8.13;79.60
10948;BME280;5526;42.070;24.752;2023-04-05T07:03:35;98503.63;;;8.07;80.86
10948;BME280;5526;42.070;24.752;2023-04-05T07:06:03;98512.09;;;7.88;79.47
10948;BME280;5526;42.070;24.752;2023-04-05T07:08:31;98507.75;;;7.72;80.46
10948;BME280;5526;42.070;24.752;2023-04-05T07:10:58;98516.47;;;8.09;79.94
10948;BME280;5526;42.070;24.752;2023-04-05T07:13:27;98513.19;;;7.92;80.30
10948;BME280;5526;42.070;24.752;2023-04-05T07:15:59;98525.97;;;7.88;80.46
10948;BME280;5526;42.070;24.752;2023-04-05T07:18:26;98516.44;;;7.77;80.18
10948;BME280;5526;42.070;24.752;2023-04-05T07:20:56;98526.56;;;7.69;80.98
10948;BME280;5526;42.070;24.752;2023-04-05T07:23:24;98527.16;;;7.76;80.62
10948;BME280;5526;42.070;24.752;2023-04-05T07:25:52;98524.78;;;8.01;80.41
10948;BME280;5526;42.070;24.752;2023-04-05T07:28:19;98538.00;;;8.11;80.71
10948;BME280;5526;42.070;24.752;2023-04-05T07:30:47;98533.19;;;8.03;79.52
10948;BME280;5526;42.070;24.752;2023-04-05T07:33:14;98530.66;;;8.13;79.99
10948;BME280;5526;42.070;24.752;2023-04-05T07:35:42;98544.91;;;7.95;78.36
10948;BME280;5526;42.070;24.752;2023-04-05T07:38:09;98540.81;;;8.04;79.09
10948;BME280;5526;42.070;24.752;2023-04-05T07:40:36;98536.19;;;7.90;79.93
10948;BME280;5526;42.070;24.752;2023-04-05T07:43:03;98540.44;;;7.91;79.02
10948;BME280;5526;42.070;24.752;2023-04-05T07:45:30;98543.22;;;8.37;79.39
10948;BME280;5526;42.070;24.752;2023-04-05T07:47:58;98542.41;;;8.32;78.58
10948;BME280;5526;42.070;24.752;2023-04-05T07:50:26;98546.81;;;8.58;78.49
10948;BME280;5526;42.070;24.752;2023-04-05T07:52:52;98542.16;;;8.65;78.67
10948;BME280;5526;42.070;24.752;2023-04-05T07:55:19;98552.06;;;8.58;77.37
10948;BME280;5526;42.070;24.752;2023-04-05T07:57:46;98548.72;;;8.67;76.41
10948;BME280;5526;42.070;24.752;2023-04-05T08:00:14;98555.09;;;8.81;76.44
10948;BME280;5526;42.070;24.752;2023-04-05T08:02:41;98551.63;;;9.13;75.18
10948;BME280;5526;42.070;24.752;2023-04-05T08:05:10;98554.91;;;9.45;74.65
10948;BME280;5526;42.070;24.752;2023-04-05T08:07:37;98555.78;;;9.09;74.77
10948;BME280;5526;42.070;24.752;2023-04-05T08:10:05;98551.75;;;9.38;72.90
10948;BME280;5526;42.070;24.752;2023-04-05T08:12:33;98555.03;;;9.65;71.63
10948;BME280;5526;42.070;24.752;2023-04-05T08:15:00;98561.91;;;9.96;69.70
10948;BME280;5526;42.070;24.752;2023-04-05T08:17:27;98563.59;;;10.22;64.63
10948;BME280;5526;42.070;24.752;2023-04-05T08:19:54;98563.44;;;9.72;63.51
10948;BME280;5526;42.070;24.752;2023-04-05T08:22:26;98583.13;;;9.74;62.85
10948;BME280;5526;42.070;24.752;2023-04-05T08:24:54;98565.53;;;9.65;64.48
10948;BME280;5526;42.070;24.752;2023-04-05T08:27:21;98563.97;;;9.69;63.74
10948;BME280;5526;42.070;24.752;2023-04-05T08:29:48;98570.81;;;9.75;63.62
10948;BME280;5526;42.070;24.752;2023-04-05T08:32:15;98564.22;;;9.77;62.58
10948;BME280;5526;42.070;24.752;2023-04-05T08:34:42;98580.56;;;9.84;61.37
10948;BME280;5526;42.070;24.752;2023-04-05T08:37:09;98574.00;;;9.87;61.41
10948;BME280;5526;42.070;24.752;2023-04-05T08:39:37;98586.63;;;9.95;60.76
10948;BME280;5526;42.070;24.752;2023-04-05T08:42:09;98584.50;;;9.82;60.77
10948;BME280;5526;42.070;24.752;2023-04-05T08:44:39;98593.81;;;9.53;61.32
10948;BME280;5526;42.070;24.752;2023-04-05T08:47:07;98593.13;;;9.72;61.85
10948;BME280;5526;42.070;24.752;2023-04-05T08:49:41;98595.78;;;9.77;61.38
10948;BME280;5526;42.070;24.752;2023-04-05T08:52:09;98593.81;;;9.53;61.42
10948;BME280;5526;42.070;24.752;2023-04-05T08:54:37;98598.47;;;9.36;62.26
10948;BME280;5526;42.070;24.752;2023-04-05T08:57:05;98594.88;;;9.47;62.38
10948;BME280;5526;42.070;24.752;2023-04-05T08:59:33;98603.25;;;9.49;63.21
10948;BME280;5526;42.070;24.752;2023-04-05T09:02:10;98592.75;;;9.49;63.24
10948;BME280;5526;42.070;24.752;2023-04-05T09:04:39;98612.19;;;9.48;62.89
10948;BME280;5526;42.070;24.752;2023-04-05T09:07:11;98600.19;;;9.15;63.08
10948;BME280;5526;42.070;24.752;2023-04-05T09:09:45;98603.69;;;9.26;63.88
10948;BME280;5526;42.070;24.752;2023-04-05T09:12:13;98602.53;;;9.58;63.02
10948;BME280;5526;42.070;24.752;2023-04-05T09:14:40;98608.81;;;9.57;62.27
10948;BME280;5526;42.070;24.752;2023-04-05T09:17:08;98615.66;;;9.58;63.32
10948;BME280;5526;42.070;24.752;2023-04-05T09:19:35;98606.31;;;9.26;61.28
10948;BME280;5526;42.070;24.752;2023-04-05T09:22:03;98600.13;;;9.52;61.25
10948;BME280;5526;42.070;24.752;2023-04-05T09:24:32;98610.25;;;9.85;62.07
10948;BME280;5526;42.070;24.752;2023-04-05T09:27:08;98609.13;;;9.66;59.44
10948;BME280;5526;42.070;24.752;2023-04-05T09:29:36;98608.34;;;9.65;59.80
10948;BME280;5526;42.070;24.752;2023-04-05T09:32:04;98611.72;;;9.61;60.33
10948;BME280;5526;42.070;24.752;2023-04-05T09:34:32;98608.56;;;9.59;61.02
10948;BME280;5526;42.070;24.752;2023-04-05T09:37:02;98621.97;;;9.57;59.69
10948;BME280;5526;42.070;24.752;2023-04-05T09:39:30;98620.22;;;9.31;60.81
10948;BME280;5526;42.070;24.752;2023-04-05T09:42:05;98613.47;;;9.40;60.86
10948;BME280;5526;42.070;24.752;2023-04-05T09:44:53;98620.78;;;9.33;59.69
10948;BME280;5526;42.070;24.752;2023-04-05T09:47:21;98611.97;;;9.54;59.78
10948;BME280;5526;42.070;24.752;2023-04-05T09:49:49;98608.50;;;9.02;59.65
10948;BME280;5526;42.070;24.752;2023-04-05T09:52:21;98613.72;;;9.39;60.36
10948;BME280;5526;42.070;24.752;2023-04-05T09:54:51;98621.25;;;9.20;61.46
10948;BME280;5526;42.070;24.752;2023-04-05T09:57:18;98611.59;;;8.94;62.30
10948;BME280;5526;42.070;24.752;2023-04-05T09:59:46;98583.53;;;8.95;62.68
10948;BME280;5526;42.070;24.752;2023-04-05T10:02:14;98617.59;;;9.31;63.35
10948;BME280;5526;42.070;24.752;2023-04-05T10:04:42;98633.19;;;9.43;62.43
10948;BME280;5526;42.070;24.752;2023-04-05T10:07:10;98629.53;;;9.49;62.64
10948;BME280;5526;42.070;24.752;2023-04-05T10:09:39;98627.75;;;9.59;61.99
10948;BME280;5526;42.070;24.752;2023-04-05T10:12:06;98622.44;;;9.44;62.31
10948;BME280;5526;42.070;24.752;2023-04-05T10:14:34;98631.94;;;9.55;62.38
10948;BME280;5526;42.070;24.752;2023-04-05T10:17:07;98620.75;;;9.80;62.85
10948;BME280;5526;42.070;24.752;2023-04-05T10:19:52;98633.63;;;9.30;61.29
10948;BME280;5526;42.070;24.752;2023-04-05T10:22:23;98624.16;;;9.29;62.83
10948;BME280;5526;42.070;24.752;2023-04-05T10:24:58;98634.41;;;9.30;63.54
10948;BME280;5526;42.070;24.752;2023-04-05T10:27:29;98619.03;;;9.07;63.79
10948;BME280;5526;42.070;24.752;2023-04-05T10:30:03;98624.47;;;8.96;63.33
10948;BME280;5526;42.070;24.752;2023-04-05T10:32:51;98630.00;;;8.99;64.43
10948;BME280;5526;42.070;24.752;2023-04-05T10:35:26;98630.81;;;9.00;63.97
10948;BME280;5526;42.070;24.752;2023-04-05T10:38:16;98618.97;;;8.97;63.90
10948;BME280;5526;42.070;24.752;2023-04-05T10:40:46;98633.09;;;9.28;64.22
10948;BME280;5526;42.070;24.752;2023-04-05T10:43:19;98640.63;;;9.19;66.98
10948;BME280;5526;42.070;24.752;2023-04-05T10:45:48;98638.00;;;9.14;67.03
10948;BME280;5526;42.070;24.752;2023-04-05T10:48:24;98638.19;;;9.03;66.61
10948;BME280;5526;42.070;24.752;2023-04-05T10:50:57;98637.41;;;9.07;66.14
10948;BME280;5526;42.070;24.752;2023-04-05T10:53:24;98635.63;;;9.13;65.80
10948;BME280;5526;42.070;24.752;2023-04-05T10:55:54;98641.56;;;9.03;65.98
10948;BME280;5526;42.070;24.752;2023-04-05T10:58:24;98629.00;;;9.05;65.28
10948;BME280;5526;42.070;24.752;2023-04-05T11:00:52;98641.16;;;9.16;64.21
10948;BME280;5526;42.070;24.752;2023-04-05T11:03:44;98641.34;;;9.46;64.22
10948;BME280;5526;42.070;24.752;2023-04-05T11:06:21;98631.03;;;9.35;64.29
10948;BME280;5526;42.070;24.752;2023-04-05T11:08:52;98631.22;;;9.23;63.58
10948;BME280;5526;42.070;24.752;2023-04-05T11:11:21;98641.81;;;9.38;63.57
10948;BME280;5526;42.070;24.752;2023-04-05T11:13:51;98627.22;;;9.57;63.34
10948;BME280;5526;42.070;24.752;2023-04-05T11:16:19;98648.97;;;9.48;63.21
10948;BME280;5526;42.070;24.752;2023-04-05T11:18:47;98637.47;;;9.59;63.55
10948;BME280;5526;42.070;24.752;2023-04-05T11:21:22;98634.28;;;9.52;63.05
10948;BME280;5526;42.070;24.752;2023-04-05T11:24:01;98638.06;;;9.71;63.15
10948;BME280;5526;42.070;24.752;2023-04-05T11:26:53;98632.06;;;9.85;63.97
10948;BME280;5526;42.070;24.752;2023-04-05T11:29:47;98638.84;;;9.71;63.33
10948;BME280;5526;42.070;24.752;2023-04-05T11:32:19;98635.84;;;9.48;64.80
10948;BME280;5526;42.070;24.752;2023-04-05T11:34:57;98638.47;;;9.53;64.24
10948;BME280;5526;42.070;24.752;2023-04-05T11:38:05;98644.34;;;9.65;64.00
10948;BME280;5526;42.070;24.752;2023-04-05T11:40:35;98645.34;;;9.59;64.40
10948;BME280;5526;42.070;24.752;2023-04-05T11:43:03;98646.28;;;9.38;63.91
10948;BME280;5526;42.070;24.752;2023-04-05T11:45:33;98642.13;;;9.47;64.04
10948;BME280;5526;42.070;24.752;2023-04-05T11:48:03;98632.28;;;9.74;64.07
10948;BME280;5526;42.070;24.752;2023-04-05T11:50:31;98640.03;;;9.49;64.67
10948;BME280;5526;42.070;24.752;2023-04-05T11:53:12;98639.00;;;9.50;65.33
10948;BME280;5526;42.070;24.752;2023-04-05T11:55:41;98636.28;;;9.35;66.00
10948;BME280;5526;42.070;24.752;2023-04-05T11:58:12;98628.00;;;9.58;64.45
10948;BME280;5526;42.070;24.752;2023-04-05T12:00:40;98628.44;;;9.45;64.42
10948;BME280;5526;42.070;24.752;2023-04-05T12:03:10;98637.84;;;9.31;65.39
10948;BME280;5526;42.070;24.752;2023-04-05T12:05:45;98637.38;;;9.39;63.92
10948;BME280;5526;42.070;24.752;2023-04-05T12:08:14;98623.34;;;9.70;64.29
10948;BME280;5526;42.070;24.752;2023-04-05T12:10:41;98653.31;;;9.74;63.62
10948;BME280;5526;42.070;24.752;2023-04-05T12:13:08;98630.25;;;9.91;62.98
10948;BME280;5526;42.070;24.752;2023-04-05T12:15:37;98635.00;;;9.99;62.96
10948;BME280;5526;42.070;24.752;2023-04-05T12:18:11;98642.03;;;10.90;59.43
10948;BME280;5526;42.070;24.752;2023-04-05T12:20:39;98649.41;;;10.68;59.59
10948;BME280;5526;42.070;24.752;2023-04-05T12:23:07;98650.56;;;10.05;61.60
10948;BME280;5526;42.070;24.752;2023-04-05T12:25:36;98645.19;;;9.80;61.99
10948;BME280;5526;42.070;24.752;2023-04-05T12:28:05;98642.06;;;9.93;62.55
10948;BME280;5526;42.070;24.752;2023-04-05T12:30:33;98642.03;;;10.85;59.97
10948;BME280;5526;42.070;24.752;2023-04-05T12:33:06;98625.00;;;9.96;61.82
10948;BME280;5526;42.070;24.752;2023-04-05T12:35:33;98635.16;;;10.49;60.28
10948;BME280;5526;42.070;24.752;2023-04-05T12:38:01;98650.00;;;9.42;64.07
10948;BME280;5526;42.070;24.752;2023-04-05T12:40:30;98647.16;;;9.12;65.79
10948;BME280;5526;42.070;24.752;2023-04-05T12:43:02;98635.09;;;9.11;65.96
10948;BME280;5526;42.070;24.752;2023-04-05T12:45:30;98637.03;;;9.30;66.09
10948;BME280;5526;42.070;24.752;2023-04-05T12:48:07;98629.13;;;9.72;65.73
10948;BME280;5526;42.070;24.752;2023-04-05T12:50:35;98639.81;;;9.55;64.77
10948;BME280;5526;42.070;24.752;2023-04-05T12:53:05;98644.78;;;9.52;64.90
10948;BME280;5526;42.070;24.752;2023-04-05T12:55:37;98651.22;;;9.29;65.83
10948;BME280;5526;42.070;24.752;2023-04-05T12:58:10;98648.00;;;9.17;67.04
10948;BME280;5526;42.070;24.752;2023-04-05T13:00:37;98650.63;;;9.22;67.13
10948;BME280;5526;42.070;24.752;2023-04-05T13:03:05;98649.22;;;9.05;68.09
10948;BME280;5526;42.070;24.752;2023-04-05T13:05:32;98651.31;;;9.03;67.65
10948;BME280;5526;42.070;24.752;2023-04-05T13:07:59;98640.38;;;9.16;68.13
10948;BME280;5526;42.070;24.752;2023-04-05T13:10:26;98636.09;;;9.10;67.54
10948;BME280;5526;42.070;24.752;2023-04-05T13:12:53;98650.97;;;9.31;67.37
10948;BME280;5526;42.070;24.752;2023-04-05T13:15:21;98639.19;;;9.38;67.27
10948;BME280;5526;42.070;24.752;2023-04-05T13:17:48;98639.50;;;9.47;66.18
10948;BME280;5526;42.070;24.752;2023-04-05T13:20:17;98640.56;;;9.51;66.14
10948;BME280;5526;42.070;24.752;2023-04-05T13:22:45;98647.16;;;9.53;65.80